createdAt,value
2018-07-19T00:02:04.125Z,5.37
2018-07-19T00:04:32.684Z,3.23
2018-07-19T00:07:01.162Z,5.60
2018-07-19T00:09:29.739Z,3.73
2018-07-19T00:11:58.382Z,2.73
2018-07-19T00:14:27.008Z,3.40
2018-07-19T00:16:55.695Z,3.77
2018-07-19T00:19:24.104Z,3.70
2018-07-19T00:21:52.655Z,5.03
2018-07-19T00:24:21.072Z,4.30
2018-07-19T00:26:49.631Z,3.00
2018-07-19T00:29:18.230Z,4.77
2018-07-19T00:31:46.903Z,4.57
2018-07-19T00:34:15.506Z,2.80
2018-07-19T00:36:44.254Z,5.17
2018-07-19T00:39:12.945Z,4.40
2018-07-19T00:41:44.695Z,4.87
2018-07-19T00:44:14.069Z,3.50
2018-07-19T00:46:42.889Z,5.00
2018-07-19T00:49:11.601Z,3.10
2018-07-19T00:51:40.086Z,2.87
2018-07-19T00:54:08.838Z,3.33
2018-07-19T00:56:37.355Z,4.20
2018-07-19T00:59:06.006Z,2.93
2018-07-19T01:01:34.689Z,4.10
2018-07-19T01:04:03.220Z,4.40
2018-07-19T01:06:31.856Z,3.63
2018-07-19T01:09:00.542Z,5.87
2018-07-19T01:11:29.226Z,3.63
2018-07-19T01:13:58.117Z,3.30
2018-07-19T01:16:26.614Z,3.33
2018-07-19T01:18:55.183Z,3.83
2018-07-19T01:21:23.865Z,3.93
2018-07-19T01:23:52.551Z,4.73
2018-07-19T01:26:21.242Z,4.27
2018-07-19T01:28:49.964Z,5.57
2018-07-19T01:31:18.712Z,4.57
2018-07-19T01:33:47.396Z,4.07
2018-07-19T01:36:15.917Z,3.27
2018-07-19T01:38:44.479Z,3.67
2018-07-19T01:41:18.298Z,3.47
2018-07-19T01:43:46.950Z,3.53
2018-07-19T01:46:15.256Z,5.47
2018-07-19T01:48:43.851Z,6.23
2018-07-19T01:51:12.800Z,3.90
2018-07-19T01:53:41.406Z,3.43
2018-07-19T01:56:09.969Z,2.90
2018-07-19T01:58:38.549Z,3.23
2018-07-19T02:01:07.234Z,4.57
2018-07-19T02:03:35.740Z,4.73
2018-07-19T02:06:04.403Z,3.70
2018-07-19T02:08:33.084Z,5.27
2018-07-19T02:11:01.776Z,4.20
2018-07-19T02:13:30.458Z,3.10
2018-07-19T02:15:59.062Z,7.67
2018-07-19T02:18:27.729Z,4.90
2018-07-19T02:20:56.312Z,5.00
2018-07-19T02:23:24.905Z,3.90
2018-07-19T02:25:53.473Z,4.97
2018-07-19T02:28:22.119Z,3.90
2018-07-19T02:30:50.760Z,5.77
2018-07-19T02:33:19.324Z,6.20
2018-07-19T02:35:48.050Z,5.03
2018-07-19T02:38:16.696Z,3.60
2018-07-19T02:40:45.288Z,6.93
2018-07-19T02:43:13.967Z,3.83
2018-07-19T02:45:42.548Z,5.80
2018-07-19T02:48:11.171Z,7.53
2018-07-19T02:50:39.815Z,4.23
2018-07-19T02:53:08.424Z,6.17
2018-07-19T02:55:37.084Z,6.53
2018-07-19T02:58:05.772Z,4.83
2018-07-19T03:00:34.427Z,6.37
2018-07-19T03:03:03.140Z,7.40
2018-07-19T03:05:31.726Z,6.10
2018-07-19T03:08:00.420Z,5.67
2018-07-19T03:10:29.094Z,9.50
2018-07-19T03:12:57.687Z,4.80
2018-07-19T03:15:25.983Z,7.27
2018-07-19T03:17:54.239Z,3.50
2018-07-19T03:20:23.028Z,5.13
2018-07-19T03:22:51.704Z,5.67
2018-07-19T03:25:20.321Z,6.53
2018-07-19T03:27:49.382Z,5.63
2018-07-19T03:30:17.966Z,5.43
2018-07-19T03:32:46.749Z,4.67
2018-07-19T03:35:15.336Z,4.43
2018-07-19T03:37:44.019Z,3.73
2018-07-19T03:40:12.976Z,4.60
2018-07-19T03:42:41.603Z,5.73
2018-07-19T03:45:09.977Z,8.30
2018-07-19T03:47:38.387Z,4.90
2018-07-19T03:50:07.350Z,5.07
2018-07-19T03:52:36.232Z,4.77
2018-07-19T03:55:04.727Z,4.90
2018-07-19T03:57:33.313Z,7.70
2018-07-19T04:00:01.850Z,5.03
2018-07-19T04:02:30.472Z,5.27
2018-07-19T04:04:59.045Z,5.33
2018-07-19T04:07:27.690Z,9.03
2018-07-19T04:09:56.498Z,6.33
2018-07-19T04:12:25.102Z,6.90
2018-07-19T04:14:53.991Z,6.90
2018-07-19T04:17:22.692Z,6.67
2018-07-19T04:19:51.674Z,13.53
2018-07-19T04:22:20.459Z,10.50
2018-07-19T04:24:49.175Z,10.17
2018-07-19T04:27:18.144Z,11.00
2018-07-19T04:29:46.855Z,8.30
2018-07-19T04:32:15.436Z,9.10
2018-07-19T04:34:44.195Z,11.73
2018-07-19T04:37:12.877Z,11.27
2018-07-19T04:39:41.565Z,15.07
2018-07-19T04:42:09.871Z,10.08
2018-07-19T04:44:38.322Z,15.50
2018-07-19T04:47:06.905Z,15.37
2018-07-19T04:49:35.316Z,11.47
2018-07-19T04:52:03.596Z,25.70
2018-07-19T04:54:32.168Z,20.50
2018-07-19T04:57:00.529Z,25.13
2018-07-19T04:59:28.923Z,31.20
2018-07-19T05:01:57.264Z,29.27
2018-07-19T05:04:25.963Z,32.97
2018-07-19T05:06:54.283Z,33.20
2018-07-19T05:09:22.638Z,30.77
2018-07-19T05:11:50.948Z,35.63
2018-07-19T05:14:19.330Z,30.37
2018-07-19T05:16:47.879Z,37.67
2018-07-19T05:19:16.534Z,26.73
2018-07-19T05:21:45.351Z,28.23
2018-07-19T05:24:13.907Z,27.57
2018-07-19T05:26:42.595Z,31.57
2018-07-19T05:29:11.002Z,35.70
2018-07-19T05:31:39.863Z,36.67
2018-07-19T05:34:08.621Z,39.07
2018-07-19T05:36:37.233Z,33.87
2018-07-19T05:39:07.893Z,34.77
2018-07-19T05:42:11.403Z,24.47
2018-07-19T05:44:40.059Z,30.43
2018-07-19T05:47:15.184Z,28.93
2018-07-19T05:49:43.782Z,35.83
2018-07-19T05:52:12.657Z,39.07
2018-07-19T05:54:41.260Z,43.30
2018-07-19T05:57:09.829Z,35.47
2018-07-19T05:59:38.407Z,22.83
2018-07-19T06:02:07.196Z,34.87
2018-07-19T06:04:35.880Z,27.13
2018-07-19T06:07:04.524Z,16.00
2018-07-19T06:09:33.059Z,23.10
2018-07-19T06:12:01.640Z,17.97
2018-07-19T06:14:30.422Z,19.10
2018-07-19T06:16:59.216Z,16.20
2018-07-19T06:19:27.749Z,12.47
2018-07-19T06:21:56.574Z,13.70
2018-07-19T06:24:25.172Z,10.93
2018-07-19T06:26:53.846Z,12.40
2018-07-19T06:29:22.428Z,10.03
2018-07-19T06:31:50.824Z,8.40
2018-07-19T06:34:19.596Z,11.37
2018-07-19T06:36:48.164Z,12.50
2018-07-19T06:39:16.757Z,8.23
2018-07-19T06:41:45.441Z,7.87
2018-07-19T06:44:14.129Z,9.73
2018-07-19T06:46:42.814Z,9.20
2018-07-19T06:49:11.342Z,6.47
2018-07-19T06:51:40.106Z,9.87
2018-07-19T06:54:08.587Z,7.10
2018-07-19T06:56:37.087Z,11.63
2018-07-19T06:59:05.835Z,9.53
2018-07-19T07:01:34.438Z,9.97
2018-07-19T07:04:03.204Z,4.53
2018-07-19T07:06:31.806Z,8.17
2018-07-19T07:09:00.383Z,7.57
2018-07-19T07:11:29.159Z,4.57
2018-07-19T07:13:58.096Z,12.27
2018-07-19T07:16:26.730Z,12.00
2018-07-19T07:18:55.224Z,5.83
2018-07-19T07:21:23.897Z,5.33
2018-07-19T07:23:52.481Z,8.13
2018-07-19T07:26:20.990Z,5.33
2018-07-19T07:28:49.645Z,4.20
2018-07-19T07:31:18.234Z,5.73
2018-07-19T07:33:46.821Z,5.27
2018-07-19T07:36:15.393Z,6.30
2018-07-19T07:38:44.081Z,8.30
2018-07-19T07:41:12.588Z,6.13
2018-07-19T07:43:41.347Z,4.97
2018-07-19T07:46:10.069Z,5.87
2018-07-19T07:48:38.576Z,9.57
2018-07-19T07:51:07.301Z,4.87
2018-07-19T07:53:35.896Z,8.33
2018-07-19T07:56:04.775Z,6.47
2018-07-19T07:58:33.288Z,7.00
2018-07-19T08:01:01.842Z,5.20
2018-07-19T08:03:30.421Z,5.63
2018-07-19T08:05:58.909Z,5.40
2018-07-19T08:08:27.482Z,3.70
2018-07-19T08:10:55.964Z,4.63
2018-07-19T08:13:24.438Z,6.30
2018-07-19T08:15:52.940Z,5.73
2018-07-19T08:18:21.509Z,4.40
2018-07-19T08:20:49.988Z,4.17
2018-07-19T08:23:18.466Z,5.93
2018-07-19T08:25:47.054Z,4.77
2018-07-19T08:28:15.633Z,23.57
2018-07-19T08:30:44.037Z,24.30
2018-07-19T08:33:12.696Z,18.67
2018-07-19T08:35:41.280Z,7.70
2018-07-19T08:38:10.170Z,13.37
2018-07-19T08:40:38.858Z,6.03
2018-07-19T08:43:07.337Z,5.10
2018-07-19T08:45:35.919Z,3.53
2018-07-19T08:48:04.604Z,6.20
2018-07-19T08:50:33.193Z,4.97
2018-07-19T08:53:01.664Z,4.57
2018-07-19T08:55:30.149Z,11.20
2018-07-19T08:57:58.732Z,6.00
2018-07-19T09:00:27.314Z,6.53
2018-07-19T09:02:55.696Z,5.57
2018-07-19T09:05:24.277Z,3.63
2018-07-19T09:07:52.756Z,4.93
2018-07-19T09:10:21.272Z,5.47
2018-07-19T09:12:49.819Z,4.60
2018-07-19T09:15:18.608Z,5.90
2018-07-19T09:17:47.076Z,4.70
2018-07-19T09:20:15.585Z,5.63
2018-07-19T09:22:44.203Z,7.87
2018-07-19T09:25:12.733Z,6.07
2018-07-19T09:27:41.209Z,5.73
2018-07-19T09:30:09.638Z,5.70
2018-07-19T09:32:38.099Z,29.67
2018-07-19T09:35:06.657Z,3.53
2018-07-19T09:37:35.240Z,3.10
2018-07-19T09:40:03.729Z,5.83
2018-07-19T09:42:32.306Z,5.40
2018-07-19T09:45:00.773Z,5.10
2018-07-19T09:47:29.169Z,8.70
2018-07-19T09:49:57.749Z,4.20
2018-07-19T09:52:26.436Z,5.60
2018-07-19T09:54:56.893Z,4.37
2018-07-19T09:57:25.632Z,5.33
2018-07-19T09:59:54.051Z,4.13
2018-07-19T10:02:22.710Z,5.23
2018-07-19T10:04:51.292Z,5.07
2018-07-19T10:07:19.987Z,4.47
2018-07-19T10:09:48.559Z,7.43
2018-07-19T10:12:17.143Z,3.60
2018-07-19T10:14:46.236Z,4.97
2018-07-19T10:17:15.078Z,4.40
2018-07-19T10:19:43.549Z,4.43
2018-07-19T10:22:12.186Z,3.43
2018-07-19T10:24:40.572Z,5.43
2018-07-19T10:27:09.151Z,4.37
2018-07-19T10:29:37.672Z,5.47
2018-07-19T10:32:06.195Z,6.57
2018-07-19T10:34:34.697Z,5.27
2018-07-19T10:37:03.177Z,4.40
2018-07-19T10:39:31.763Z,3.00
2018-07-19T10:42:00.240Z,5.23
2018-07-19T10:44:28.865Z,5.23
2018-07-19T10:46:57.299Z,3.40
2018-07-19T10:49:25.781Z,2.70
2018-07-19T10:51:54.306Z,2.90
2018-07-19T10:54:22.848Z,4.13
2018-07-19T10:56:51.332Z,2.63
2018-07-19T10:59:20.119Z,5.97
2018-07-19T11:01:48.600Z,3.23
2018-07-19T11:04:17.180Z,2.97
2018-07-19T11:06:45.656Z,4.30
2018-07-19T11:09:14.244Z,2.23
2018-07-19T11:11:42.724Z,3.10
2018-07-19T11:14:11.308Z,3.40
2018-07-19T11:16:39.787Z,3.23
2018-07-19T11:19:08.272Z,4.60
2018-07-19T11:21:36.737Z,3.30
2018-07-19T11:24:05.224Z,3.63
2018-07-19T11:26:33.709Z,3.97
2018-07-19T11:29:02.295Z,8.17
2018-07-19T11:31:30.775Z,7.53
2018-07-19T11:33:59.356Z,3.40
2018-07-19T11:36:27.939Z,4.93
2018-07-19T11:38:56.346Z,4.77
2018-07-19T11:41:24.805Z,5.20
2018-07-19T11:43:53.381Z,3.07
2018-07-19T11:46:21.964Z,3.07
2018-07-19T11:48:50.447Z,3.70
2018-07-19T11:51:19.027Z,2.67
2018-07-19T11:53:47.512Z,4.03
2018-07-19T11:56:16.192Z,4.00
2018-07-19T11:58:44.881Z,5.97
2018-07-19T12:01:13.366Z,3.30
2018-07-19T12:03:41.750Z,3.60
2018-07-19T12:06:10.335Z,4.77
2018-07-19T12:08:38.808Z,4.93
2018-07-19T12:11:07.400Z,4.50
2018-07-19T12:13:36.072Z,3.50
2018-07-19T12:16:04.652Z,3.45
2018-07-19T12:18:33.338Z,3.35
2018-07-19T12:21:01.923Z,3.60
2018-07-19T12:23:30.509Z,3.40
2018-07-19T12:25:59.085Z,3.17
2018-07-19T12:28:27.771Z,3.73
2018-07-19T12:30:56.367Z,4.90
2018-07-19T12:33:24.940Z,4.13
2018-07-19T12:35:53.344Z,4.00
2018-07-19T12:38:22.108Z,3.80
2018-07-19T12:40:50.790Z,4.20
2018-07-19T12:43:19.269Z,3.30
2018-07-19T12:45:48.168Z,6.23
2018-07-19T12:48:16.742Z,7.80
2018-07-19T12:50:45.223Z,3.87
2018-07-19T12:53:13.601Z,5.53
2018-07-19T12:55:42.084Z,3.77
2018-07-19T12:58:10.665Z,3.57
2018-07-19T13:00:39.049Z,3.83
2018-07-19T13:03:07.831Z,4.27
2018-07-19T13:05:36.516Z,5.17
2018-07-19T13:08:04.894Z,4.93
2018-07-19T13:10:33.886Z,3.37
2018-07-19T13:13:02.483Z,7.47
2018-07-19T13:15:31.160Z,3.97
2018-07-19T13:17:59.742Z,4.13
2018-07-19T13:20:28.387Z,4.57
2018-07-19T13:22:57.111Z,3.77
2018-07-19T13:25:25.708Z,4.97
2018-07-19T13:27:54.189Z,3.67
2018-07-19T13:30:22.762Z,4.73
2018-07-19T13:32:51.300Z,3.80
2018-07-19T13:35:20.034Z,5.80
2018-07-19T13:37:48.650Z,4.27
2018-07-19T13:40:17.343Z,4.83
2018-07-19T13:42:46.227Z,4.17
2018-07-19T13:45:14.973Z,3.67
2018-07-19T13:47:43.557Z,5.00
2018-07-19T13:50:12.241Z,4.17
2018-07-19T13:52:45.956Z,7.17
2018-07-19T13:55:14.638Z,9.23
2018-07-19T13:57:43.218Z,6.20
2018-07-19T14:00:11.900Z,4.50
2018-07-19T14:02:40.446Z,5.63
2018-07-19T14:05:09.067Z,4.43
2018-07-19T14:07:37.749Z,4.37
2018-07-19T14:10:06.691Z,4.03
2018-07-19T14:12:35.531Z,3.97
2018-07-19T14:15:04.276Z,4.43
2018-07-19T14:17:32.904Z,8.47
2018-07-19T14:20:01.485Z,4.17
2018-07-19T14:22:30.024Z,4.33
2018-07-19T14:24:58.549Z,4.90
2018-07-19T14:27:27.048Z,5.47
2018-07-19T14:29:55.472Z,5.07
2018-07-19T14:32:24.093Z,5.03
2018-07-19T14:34:52.694Z,4.00
2018-07-19T14:37:21.260Z,9.13
2018-07-19T14:39:49.707Z,4.60
2018-07-19T14:42:18.427Z,5.87
2018-07-19T14:44:47.007Z,8.27
2018-07-19T14:47:15.590Z,4.33
2018-07-19T14:49:44.085Z,6.23
2018-07-19T14:52:12.552Z,3.73
2018-07-19T14:54:41.237Z,5.87
2018-07-19T14:57:09.823Z,4.10
2018-07-19T14:59:38.448Z,8.37
2018-07-19T15:02:07.295Z,4.40
2018-07-19T15:04:35.794Z,6.33
2018-07-19T15:07:04.357Z,3.87
2018-07-19T15:09:32.839Z,6.73
2018-07-19T15:12:01.531Z,4.33
2018-07-19T15:14:29.881Z,3.63
2018-07-19T15:16:58.383Z,5.97
2018-07-19T15:19:26.970Z,4.63
2018-07-19T15:21:55.549Z,3.63
2018-07-19T15:24:24.232Z,4.53
2018-07-19T15:26:52.815Z,4.47
2018-07-19T15:29:21.432Z,3.17
2018-07-19T15:31:49.925Z,4.17
2018-07-19T15:34:18.514Z,5.90
2018-07-19T15:36:47.058Z,3.87
2018-07-19T15:39:15.936Z,3.70
2018-07-19T15:41:44.524Z,3.70
2018-07-19T15:44:13.007Z,4.03
2018-07-19T15:46:41.691Z,3.50
2018-07-19T15:49:10.327Z,5.20
2018-07-19T15:51:38.854Z,5.40
2018-07-19T15:54:07.433Z,7.97
2018-07-19T15:56:36.015Z,4.80
2018-07-19T15:59:04.601Z,3.57
2018-07-19T16:01:33.215Z,4.73
2018-07-19T16:04:01.968Z,5.63
2018-07-19T16:06:30.552Z,5.03
2018-07-19T16:08:59.239Z,6.50
2018-07-19T16:11:27.821Z,5.93
2018-07-19T16:13:56.542Z,10.77
2018-07-19T16:16:25.191Z,15.70
2018-07-19T16:18:53.800Z,7.40
2018-07-19T16:21:22.363Z,7.57
2018-07-19T16:23:50.859Z,7.97
2018-07-19T16:26:19.322Z,8.00
2018-07-19T16:28:48.111Z,6.50
2018-07-19T16:31:16.611Z,6.33
2018-07-19T16:33:45.172Z,7.73
2018-07-19T16:36:13.858Z,8.00
2018-07-19T16:38:42.456Z,5.70
2018-07-19T16:41:10.876Z,5.53
2018-07-19T16:43:39.502Z,7.97
2018-07-19T16:46:08.190Z,9.50
2018-07-19T16:48:36.872Z,6.37
2018-07-19T16:51:05.456Z,6.50
2018-07-19T16:53:34.155Z,7.90
2018-07-19T16:56:02.820Z,4.43
2018-07-19T16:58:31.516Z,5.30
2018-07-19T17:01:00.199Z,8.03
2018-07-19T17:03:28.687Z,6.70
2018-07-19T17:05:57.090Z,5.57
2018-07-19T17:08:25.638Z,5.83
2018-07-19T17:10:54.232Z,9.23
2018-07-19T17:13:22.808Z,5.03
2018-07-19T17:15:51.491Z,6.20
2018-07-19T17:18:20.183Z,7.27
2018-07-19T17:20:48.963Z,5.50
2018-07-19T17:23:17.675Z,5.63
2018-07-19T17:25:46.232Z,5.77
2018-07-19T17:28:14.919Z,4.50
2018-07-19T17:30:43.502Z,7.10
2018-07-19T17:33:12.541Z,4.20
2018-07-19T17:35:41.181Z,7.57
2018-07-19T17:38:09.694Z,5.17
2018-07-19T17:40:38.396Z,4.27
2018-07-19T17:43:06.945Z,12.53
2018-07-19T17:45:35.931Z,4.90
2018-07-19T17:48:04.619Z,3.73
2018-07-19T17:50:33.096Z,5.93
2018-07-19T17:53:01.668Z,5.80
2018-07-19T17:55:30.258Z,5.83
2018-07-19T17:57:58.834Z,4.60
2018-07-19T18:00:27.344Z,3.87
2018-07-19T18:02:55.664Z,5.57
2018-07-19T18:05:24.276Z,4.43
2018-07-19T18:07:52.796Z,3.67
2018-07-19T18:10:21.348Z,4.33
2018-07-19T18:12:49.922Z,4.20
2018-07-19T18:15:18.505Z,5.07
2018-07-19T18:17:47.127Z,3.43
2018-07-19T18:20:15.823Z,4.83
2018-07-19T18:22:44.458Z,6.93
2018-07-19T18:25:13.148Z,6.97
2018-07-19T18:27:41.729Z,6.00
2018-07-19T18:30:10.244Z,7.57
2018-07-19T18:32:38.852Z,7.70
2018-07-19T18:35:07.578Z,4.43
2018-07-19T18:37:35.883Z,7.53
2018-07-19T18:40:04.209Z,5.13
2018-07-19T18:42:32.484Z,7.83
2018-07-19T18:45:00.818Z,6.17
2018-07-19T18:47:29.093Z,6.40
2018-07-19T18:49:57.853Z,8.00
2018-07-19T18:52:26.180Z,9.58
2018-07-19T18:54:54.839Z,8.93
2018-07-19T18:57:23.130Z,5.70
2018-07-19T18:59:51.397Z,7.87
2018-07-19T19:02:19.944Z,9.50
2018-07-19T19:04:48.840Z,9.38
2018-07-19T19:07:17.348Z,7.70
2018-07-19T19:09:45.620Z,9.28
2018-07-19T19:12:14.274Z,9.00
2018-07-19T19:14:42.859Z,10.53
2018-07-19T19:17:11.354Z,7.12
2018-07-19T19:19:39.925Z,6.42
2018-07-19T19:22:08.236Z,10.70
2018-07-19T19:24:37.908Z,11.90
2018-07-19T19:27:06.415Z,7.72
2018-07-19T19:29:34.867Z,12.53
2018-07-19T19:32:03.474Z,10.78
2018-07-19T19:34:32.140Z,15.75
2018-07-19T19:37:00.873Z,13.88
2018-07-19T19:39:29.520Z,15.93
2018-07-19T19:41:58.091Z,14.28
2018-07-19T19:44:26.676Z,11.57
2018-07-19T19:46:55.464Z,10.75
2018-07-19T19:49:24.150Z,8.17
2018-07-19T19:51:52.635Z,10.07
2018-07-19T19:54:21.265Z,10.23
2018-07-19T19:56:49.899Z,14.33
2018-07-19T19:59:18.588Z,12.33
2018-07-19T20:01:47.164Z,7.30
2018-07-19T20:04:15.713Z,8.43
2018-07-19T20:06:44.250Z,11.30
2018-07-19T20:09:13.016Z,8.13
2018-07-19T20:11:41.603Z,7.07
2018-07-19T20:14:10.180Z,9.10
2018-07-19T20:16:38.636Z,8.70
2018-07-19T20:19:07.260Z,5.93
2018-07-19T20:21:35.930Z,7.73
2018-07-19T20:24:04.515Z,6.40
2018-07-19T20:26:33.104Z,6.10
2018-07-19T20:29:01.550Z,8.67
2018-07-19T20:31:30.261Z,6.03
2018-07-19T20:33:58.949Z,7.03
2018-07-19T20:36:27.528Z,6.93
2018-07-19T20:38:56.114Z,7.80
2018-07-19T20:41:24.702Z,8.60
2018-07-19T20:43:53.075Z,8.37
2018-07-19T20:46:21.862Z,10.07
2018-07-19T20:48:50.266Z,7.23
2018-07-19T20:51:18.828Z,6.13
2018-07-19T20:53:47.410Z,9.53
2018-07-19T20:56:15.945Z,4.87
2018-07-19T20:58:44.567Z,8.40
2018-07-19T21:01:13.065Z,6.27
2018-07-19T21:03:41.537Z,5.53
2018-07-19T21:06:10.115Z,11.33
2018-07-19T21:08:38.699Z,6.27
2018-07-19T21:11:07.333Z,6.73
2018-07-19T21:13:35.964Z,6.43
2018-07-19T21:16:04.748Z,8.40
2018-07-19T21:18:33.345Z,7.97
2018-07-19T21:21:01.922Z,5.77
2018-07-19T21:23:30.520Z,7.07
2018-07-19T21:25:59.056Z,4.73
2018-07-19T21:28:27.670Z,3.77
2018-07-19T21:30:56.165Z,7.77
2018-07-19T21:33:24.652Z,5.47
2018-07-19T21:35:53.118Z,5.20
2018-07-19T21:38:21.702Z,7.97
2018-07-19T21:40:50.286Z,4.50
2018-07-19T21:43:18.953Z,4.60
2018-07-19T21:45:47.647Z,6.47
2018-07-19T21:48:16.442Z,4.30
2018-07-19T21:50:44.975Z,4.13
2018-07-19T21:53:13.505Z,4.40
2018-07-19T21:55:42.086Z,5.40
2018-07-19T21:58:10.666Z,6.03
2018-07-19T22:00:44.780Z,6.97
2018-07-19T22:03:13.361Z,5.90
2018-07-19T22:05:41.946Z,4.70
2018-07-19T22:08:10.442Z,4.00
2018-07-19T22:10:39.006Z,5.33
2018-07-19T22:13:07.799Z,6.97
2018-07-19T22:15:36.378Z,3.40
2018-07-19T22:18:04.877Z,6.13
2018-07-19T22:20:33.380Z,4.60
2018-07-19T22:23:01.924Z,3.50
2018-07-19T22:25:30.502Z,7.83
2018-07-19T22:27:58.990Z,5.63
2018-07-19T22:30:27.569Z,3.53
2018-07-19T22:32:56.153Z,3.93
2018-07-19T22:35:24.747Z,5.67
2018-07-19T22:37:53.423Z,7.13
2018-07-19T22:40:22.115Z,5.27
2018-07-19T22:42:50.593Z,3.67
2018-07-19T22:45:19.071Z,5.37
2018-07-19T22:47:47.984Z,7.03
2018-07-19T22:50:16.543Z,5.67
2018-07-19T22:52:45.239Z,4.40
2018-07-19T22:55:13.820Z,3.90
2018-07-19T22:57:42.392Z,4.70
2018-07-19T23:00:10.978Z,4.33
2018-07-19T23:02:39.386Z,4.80
2018-07-19T23:05:08.039Z,5.97
2018-07-19T23:07:36.632Z,4.80
2018-07-19T23:10:05.136Z,5.23
2018-07-19T23:12:33.492Z,5.13
2018-07-19T23:15:01.888Z,4.00
2018-07-19T23:17:30.463Z,4.20
2018-07-19T23:19:59.024Z,5.13
2018-07-19T23:22:27.609Z,3.57
2018-07-19T23:24:56.105Z,6.00
2018-07-19T23:27:24.685Z,5.60
2018-07-19T23:29:53.262Z,6.10
2018-07-19T23:32:21.948Z,3.93
2018-07-19T23:34:50.466Z,7.93
2018-07-19T23:37:22.384Z,4.50
2018-07-19T23:39:55.584Z,6.17
2018-07-19T23:42:31.837Z,4.10
2018-07-19T23:45:08.812Z,5.73
2018-07-19T23:47:39.364Z,5.40
2018-07-19T23:50:07.927Z,5.90
2018-07-19T23:52:36.515Z,5.20
2018-07-19T23:55:05.009Z,5.50
2018-07-19T23:57:33.599Z,4.93
